Time;durP1;ratioP1;P1;durP2;ratioP2;P2;SDS_P1;SDS_P2;PMS_P1;PMS_P2;Temp;Humidity;BMP_temperature;BMP_pressure;BME280_temperature;BME280_humidity;BME280_pressure;Samples;Min_cycle;Max_cycle;Signal;HPM_P1;HPM_P2
2022/04/22 00:01:28;;;;;;;9.03;4.00;;;;;;;;;;5071449;28;20050;-62
2022/04/22 00:03:54;;;;;;;6.27;4.30;;;;;;;;;;5072206;28;20525;-61
2022/04/22 00:06:20;;;;;;;9.40;4.80;;;;;;;;;;5071702;28;20055;-62
2022/04/22 00:08:46;;;;;;;8.13;4.83;;;;;;;;;;5071837;28;20037;-62
2022/04/22 00:11:30;;;;;;;10.03;5.93;;;;;;;;;;5070825;28;20127;-62
2022/04/22 00:14:01;;;;;;;9.03;4.87;;;;;;;;;;5071411;28;20078;-62
2022/04/22 00:16:32;;;;;;;9.07;5.20;;;;;;;;;;5071548;28;20102;-62
2022/04/22 00:18:58;;;;;;;12.80;6.90;;;;;;;;;;5071594;28;20033;-61
2022/04/22 00:21:24;;;;;;;14.50;6.97;;;;;;;;;;5070725;28;20047;-62
2022/04/22 00:23:51;;;;;;;8.87;6.83;;;;;;;;;;5070993;28;20044;-62
2022/04/22 00:26:18;;;;;;;16.30;7.03;;;;;;;;;;5071229;28;20048;-62
2022/04/22 00:28:44;;;;;;;16.07;7.20;;;;;;;;;;5071546;28;20040;-62
2022/04/22 00:31:10;;;;;;;12.50;7.10;;;;;;;;;;5071158;28;20044;-61
2022/04/22 00:33:37;;;;;;;12.60;7.60;;;;;;;;;;5071266;28;20406;-62
2022/04/22 00:36:03;;;;;;;16.03;6.87;;;;;;;;;;5071320;28;20132;-61
2022/04/22 00:38:29;;;;;;;13.67;7.93;;;;;;;;;;5070975;28;20055;-62
2022/04/22 00:40:56;;;;;;;12.53;7.97;;;;;;;;;;5068847;28;20076;-62
2022/04/22 00:43:25;;;;;;;13.83;7.80;;;;;;;;;;5065481;28;20090;-61
2022/04/22 00:45:53;;;;;;;19.03;7.97;;;;;;;;;;5071117;28;20082;-61
2022/04/22 00:48:19;;;;;;;16.50;8.63;;;;;;;;;;5070506;28;20037;-62
2022/04/22 00:50:46;;;;;;;15.23;8.90;;;;;;;;;;5050879;28;20087;-62
2022/04/22 00:53:13;;;;;;;17.20;8.60;;;;;;;;;;5051135;28;20057;-62
2022/04/22 00:55:46;;;;;;;13.93;8.77;;;;;;;;;;5050846;28;20048;-62
2022/04/22 00:58:12;;;;;;;13.87;8.87;;;;;;;;;;5050824;28;20052;-62
2022/04/22 01:00:39;;;;;;;18.20;9.77;;;;;;;;;;5050430;28;20287;-62
2022/04/22 01:03:05;;;;;;;18.80;8.70;;;;;;;;;;5050759;28;20064;-61
2022/04/22 01:11:02;;;;;;;20.20;9.13;;;;;;;;;;5070189;28;20052;-62
2022/04/22 01:13:29;;;;;;;13.07;8.43;;;;;;;;;;5070359;28;20052;-62
2022/04/22 01:15:56;;;;;;;16.70;9.00;;;;;;;;;;5069995;28;20074;-62
2022/04/22 01:18:22;;;;;;;19.60;9.47;;;;;;;;;;5070126;28;20113;-63
2022/04/22 01:20:48;;;;;;;14.87;9.40;;;;;;;;;;5070277;28;20075;-62
2022/04/22 01:23:14;;;;;;;14.97;9.43;;;;;;;;;;5069853;28;20527;-62
2022/04/22 01:25:40;;;;;;;16.17;9.53;;;;;;;;;;5069513;28;20048;-62
2022/04/22 01:28:07;;;;;;;16.83;9.87;;;;;;;;;;5070180;28;20474;-62
2022/04/22 01:30:33;;;;;;;18.37;10.23;;;;;;;;;;5069850;28;20055;-62
2022/04/22 01:32:59;;;;;;;18.83;10.87;;;;;;;;;;5067919;28;20032;-62
2022/04/22 01:35:25;;;;;;;19.23;10.43;;;;;;;;;;5069871;28;20384;-62
2022/04/22 01:37:51;;;;;;;20.50;10.17;;;;;;;;;;5070073;28;20048;-62
2022/04/22 01:40:18;;;;;;;16.77;9.80;;;;;;;;;;5069898;28;20063;-63
2022/04/22 01:42:44;;;;;;;18.07;10.17;;;;;;;;;;5070239;28;20041;-62
2022/04/22 01:45:10;;;;;;;18.37;11.07;;;;;;;;;;5069835;28;20040;-61
2022/04/22 01:47:36;;;;;;;19.33;10.67;;;;;;;;;;5069739;28;20104;-62
2022/04/22 01:50:03;;;;;;;18.43;11.80;;;;;;;;;;5069442;28;20056;-62
2022/04/22 01:52:29;;;;;;;19.27;11.27;;;;;;;;;;5069737;28;20109;-62
2022/04/22 01:54:56;;;;;;;22.87;11.23;;;;;;;;;;5069944;28;20051;-62
2022/04/22 01:57:22;;;;;;;22.37;12.53;;;;;;;;;;5069608;28;20091;-62
2022/04/22 01:59:48;;;;;;;26.33;12.87;;;;;;;;;;5070113;28;20071;-62
2022/04/22 02:02:15;;;;;;;21.53;12.33;;;;;;;;;;5069727;28;20090;-62
2022/04/22 02:04:41;;;;;;;20.83;12.67;;;;;;;;;;5050748;28;20040;-62
2022/04/22 02:07:08;;;;;;;26.83;14.67;;;;;;;;;;5049816;28;20052;-62
2022/04/22 02:09:34;;;;;;;25.47;14.33;;;;;;;;;;5049561;28;20044;-62
2022/04/22 02:12:00;;;;;;;28.97;15.07;;;;;;;;;;5049717;28;20045;-62
2022/04/22 02:14:26;;;;;;;28.03;14.67;;;;;;;;;;5049337;28;20044;-62
2022/04/22 02:16:52;;;;;;;33.23;14.83;;;;;;;;;;5050005;28;20041;-61
2022/04/22 02:19:19;;;;;;;28.27;17.70;;;;;;;;;;5049278;28;20044;-62
2022/04/22 02:21:45;;;;;;;38.37;17.73;;;;;;;;;;5049880;28;20388;-62
2022/04/22 02:24:11;;;;;;;29.53;15.43;;;;;;;;;;5049741;28;20132;-62
2022/04/22 02:29:22;;;;;;;30.70;15.77;;;;;;;;;;5061841;28;20045;-62
2022/04/22 02:31:48;;;;;;;31.20;15.20;;;;;;;;;;5069925;28;20044;-62
2022/04/22 02:34:14;;;;;;;31.47;16.57;;;;;;;;;;5064352;28;20080;-62
2022/04/22 02:36:42;;;;;;;33.17;16.17;;;;;;;;;;5049198;28;20128;-61
2022/04/22 02:39:08;;;;;;;35.73;15.83;;;;;;;;;;5049385;28;20107;-62
2022/04/22 02:47:04;;;;;;;33.93;17.13;;;;;;;;;;5057613;28;20049;-62
2022/04/22 02:49:30;;;;;;;39.20;17.87;;;;;;;;;;5073546;28;20123;-62
2022/04/22 02:51:56;;;;;;;32.80;17.17;;;;;;;;;;5073428;28;20590;-62
2022/04/22 02:54:22;;;;;;;34.37;18.73;;;;;;;;;;5072876;28;20049;-62
2022/04/22 02:56:50;;;;;;;38.03;17.63;;;;;;;;;;5072881;28;20040;-62
2022/04/22 02:59:17;;;;;;;38.90;17.60;;;;;;;;;;5072997;28;20052;-62
2022/04/22 03:01:43;;;;;;;33.10;15.80;;;;;;;;;;5090399;28;20044;-62
2022/04/22 03:04:10;;;;;;;37.17;17.33;;;;;;;;;;5080106;28;20040;-62
2022/04/22 03:06:36;;;;;;;38.03;17.63;;;;;;;;;;5073350;28;20126;-62
2022/04/22 03:09:02;;;;;;;36.53;16.93;;;;;;;;;;5073532;28;20139;-62
2022/04/22 03:11:29;;;;;;;32.47;17.00;;;;;;;;;;5073017;28;20044;-62
2022/04/22 03:13:55;;;;;;;32.67;18.57;;;;;;;;;;5072815;28;20093;-62
2022/04/22 03:16:25;;;;;;;38.03;16.60;;;;;;;;;;5071953;28;20055;-62
2022/04/22 03:18:51;;;;;;;26.67;15.13;;;;;;;;;;5072393;28;20036;-62
2022/04/22 03:21:17;;;;;;;34.37;16.57;;;;;;;;;;5072330;28;20113;-62
2022/04/22 03:23:43;;;;;;;35.53;16.93;;;;;;;;;;5073034;28;20040;-62
2022/04/22 03:26:09;;;;;;;36.43;16.23;;;;;;;;;;5072392;28;20491;-62
2022/04/22 03:28:35;;;;;;;30.57;16.07;;;;;;;;;;5072524;28;20109;-62
2022/04/22 03:31:01;;;;;;;34.10;16.17;;;;;;;;;;5072040;28;20048;-62
2022/04/22 03:33:27;;;;;;;33.33;16.50;;;;;;;;;;5072185;28;20118;-62
2022/04/22 03:35:53;;;;;;;35.57;15.30;;;;;;;;;;5071607;28;20118;-62
2022/04/22 03:38:20;;;;;;;31.57;14.07;;;;;;;;;;5071426;28;20051;-62
2022/04/22 03:40:50;;;;;;;30.03;15.33;;;;;;;;;;5072428;28;20051;-62
2022/04/22 03:43:16;;;;;;;43.53;16.30;;;;;;;;;;5071299;28;20044;-62
2022/04/22 03:45:42;;;;;;;29.70;17.17;;;;;;;;;;5072151;28;20043;-62
2022/04/22 03:48:09;;;;;;;32.87;15.00;;;;;;;;;;5072290;28;20131;-62
2022/04/22 03:50:36;;;;;;;31.13;15.20;;;;;;;;;;5071691;28;20044;-62
2022/04/22 03:53:03;;;;;;;35.27;16.13;;;;;;;;;;5072078;28;20041;-62
2022/04/22 03:55:29;;;;;;;32.00;15.83;;;;;;;;;;5073535;28;20525;-62
2022/04/22 03:58:10;;;;;;;31.07;13.80;;;;;;;;;;5074801;28;20040;-62
2022/04/22 04:00:40;;;;;;;29.13;14.27;;;;;;;;;;5072149;28;20044;-62
2022/04/22 04:03:13;;;;;;;29.70;14.50;;;;;;;;;;5071629;28;20410;-62
2022/04/22 04:05:40;;;;;;;30.13;14.55;;;;;;;;;;5069714;28;20071;-62
2022/04/22 04:08:06;;;;;;;26.47;14.00;;;;;;;;;;5051848;28;20041;-62
2022/04/22 04:16:02;;;;;;;29.00;12.33;;;;;;;;;;5051768;28;20162;-62
2022/04/22 04:18:29;;;;;;;24.60;12.87;;;;;;;;;;5051576;28;20127;-62
2022/04/22 04:23:40;;;;;;;26.13;13.53;;;;;;;;;;5055116;28;20040;-62
2022/04/22 04:26:07;;;;;;;28.43;13.47;;;;;;;;;;5071076;28;20665;-62
2022/04/22 04:28:34;;;;;;;19.13;11.63;;;;;;;;;;5071251;28;20052;-62
2022/04/22 04:31:00;;;;;;;22.00;12.37;;;;;;;;;;5070741;28;20131;-62
2022/04/22 04:33:26;;;;;;;19.03;11.20;;;;;;;;;;5070471;28;20045;-62
2022/04/22 04:35:52;;;;;;;24.87;11.83;;;;;;;;;;5069937;28;20047;-62
2022/04/22 04:38:20;;;;;;;20.77;10.20;;;;;;;;;;5070598;28;20140;-62
2022/04/22 04:40:46;;;;;;;20.30;11.33;;;;;;;;;;5070967;28;20093;-62
2022/04/22 04:43:12;;;;;;;21.80;9.80;;;;;;;;;;5070538;28;20051;-63
2022/04/22 04:45:38;;;;;;;17.27;10.40;;;;;;;;;;5070585;28;20045;-62
2022/04/22 04:48:04;;;;;;;24.10;9.50;;;;;;;;;;5070640;28;20502;-63
2022/04/22 04:50:31;;;;;;;23.20;10.47;;;;;;;;;;5070624;28;20075;-63
2022/04/22 04:52:57;;;;;;;20.10;9.77;;;;;;;;;;5069746;28;20808;-62
2022/04/22 04:55:24;;;;;;;19.13;9.70;;;;;;;;;;5069643;28;20044;-62
2022/04/22 04:57:50;;;;;;;19.97;9.47;;;;;;;;;;5069582;28;20411;-62
2022/04/22 05:00:18;;;;;;;18.17;9.87;;;;;;;;;;5069661;28;20083;-62
2022/04/22 05:02:44;;;;;;;21.40;10.73;;;;;;;;;;5070295;28;20063;-62
2022/04/22 05:05:11;;;;;;;18.17;9.10;;;;;;;;;;5070396;28;20044;-63
2022/04/22 05:07:48;;;;;;;19.40;9.13;;;;;;;;;;5070067;28;20053;-62
2022/04/22 05:10:14;;;;;;;14.50;8.43;;;;;;;;;;5054909;28;20461;-62
2022/04/22 05:12:41;;;;;;;13.57;7.60;;;;;;;;;;5050581;28;20052;-62
2022/04/22 05:15:08;;;;;;;14.63;7.37;;;;;;;;;;5063081;28;20052;-62
2022/04/22 05:17:34;;;;;;;12.43;6.93;;;;;;;;;;5068774;28;20041;-62
2022/04/22 05:20:00;;;;;;;13.27;7.37;;;;;;;;;;5078536;28;20056;-62
2022/04/22 05:22:26;;;;;;;11.27;7.10;;;;;;;;;;5070653;28;20213;-63
2022/04/22 05:24:52;;;;;;;15.90;7.47;;;;;;;;;;5070229;28;20040;-63
2022/04/22 05:27:18;;;;;;;17.63;8.03;;;;;;;;;;5069894;28;20102;-62
2022/04/22 05:32:38;;;;;;;13.47;6.50;;;;;;;;;;5070156;28;20048;-62
2022/04/22 05:35:08;;;;;;;12.20;6.57;;;;;;;;;;5069802;28;20443;-63
2022/04/22 05:37:46;;;;;;;9.93;6.83;;;;;;;;;;5069373;28;20543;-62
2022/04/22 05:40:13;;;;;;;10.40;6.63;;;;;;;;;;5069903;28;20060;-62
2022/04/22 05:42:40;;;;;;;14.47;6.80;;;;;;;;;;5069377;28;20124;-62
2022/04/22 05:45:07;;;;;;;9.40;5.77;;;;;;;;;;5069503;28;20044;-62
2022/04/22 05:47:33;;;;;;;10.83;6.43;;;;;;;;;;5069983;28;20060;-62
2022/04/22 05:50:00;;;;;;;11.57;5.63;;;;;;;;;;5069600;28;20051;-62
2022/04/22 05:52:26;;;;;;;9.37;6.57;;;;;;;;;;5069655;28;20106;-62
2022/04/22 05:54:53;;;;;;;12.70;6.50;;;;;;;;;;5069638;28;20555;-62
2022/04/22 05:57:19;;;;;;;16.57;5.83;;;;;;;;;;5069273;28;20809;-62
2022/04/22 05:59:46;;;;;;;11.40;5.90;;;;;;;;;;5069705;28;20044;-62
2022/04/22 06:02:12;;;;;;;8.83;5.70;;;;;;;;;;5069841;28;20054;-63
2022/04/22 06:04:38;;;;;;;15.70;4.90;;;;;;;;;;5069496;28;20040;-62
2022/04/22 06:07:04;;;;;;;8.00;5.27;;;;;;;;;;5069133;28;20107;-63
2022/04/22 06:12:15;;;;;;;12.23;4.83;;;;;;;;;;5069396;28;20053;-63
2022/04/22 06:14:41;;;;;;;11.73;5.23;;;;;;;;;;5069727;28;20090;-63
2022/04/22 06:17:07;;;;;;;8.67;5.10;;;;;;;;;;5069227;28;20384;-62
2022/04/22 06:19:33;;;;;;;7.83;4.70;;;;;;;;;;5070372;28;20045;-63
2022/04/22 06:21:59;;;;;;;12.03;4.87;;;;;;;;;;5073733;28;20818;-62
2022/04/22 06:24:25;;;;;;;9.87;4.30;;;;;;;;;;5073280;28;20136;-62
2022/04/22 06:26:51;;;;;;;9.77;4.53;;;;;;;;;;5072876;28;20131;-63
2022/04/22 06:29:17;;;;;;;9.93;4.93;;;;;;;;;;5073026;28;20055;-62
2022/04/22 06:31:43;;;;;;;8.90;4.47;;;;;;;;;;5072932;28;20048;-63
2022/04/22 06:34:10;;;;;;;6.70;4.00;;;;;;;;;;5072091;28;20044;-63
2022/04/22 06:36:36;;;;;;;10.33;5.20;;;;;;;;;;5071636;28;20072;-62
2022/04/22 06:39:02;;;;;;;9.97;4.43;;;;;;;;;;5069859;28;20662;-63
2022/04/22 06:45:46;;;;;;;9.67;4.90;;;;;;;;;;5072427;28;20045;-63
2022/04/22 06:47:12;;;;;;;6.97;4.23;;;;;;;;;;5071626;28;20080;-63
2022/04/22 06:49:38;;;;;;;8.60;4.83;;;;;;;;;;5072332;28;20128;-63
2022/04/22 06:52:06;;;;;;;9.60;4.77;;;;;;;;;;5069266;28;20491;-63
2022/04/22 06:54:33;;;;;;;7.53;4.43;;;;;;;;;;5087903;28;20058;-62
2022/04/22 06:57:00;;;;;;;7.70;5.27;;;;;;;;;;5072401;28;20037;-62
2022/04/22 06:59:26;;;;;;;10.77;4.53;;;;;;;;;;5072659;28;20537;-62
2022/04/22 07:01:52;;;;;;;9.20;4.20;;;;;;;;;;5072278;28;20041;-62
2022/04/22 07:04:19;;;;;;;6.97;4.50;;;;;;;;;;5071205;28;20423;-62
2022/04/22 07:06:45;;;;;;;9.33;4.93;;;;;;;;;;5071534;28;20083;-62
2022/04/22 07:09:12;;;;;;;9.93;4.93;;;;;;;;;;5062953;28;20072;-62
2022/04/22 07:11:38;;;;;;;10.20;4.40;;;;;;;;;;5071965;28;20529;-62
2022/04/22 07:14:05;;;;;;;8.17;4.60;;;;;;;;;;5071537;28;20052;-62
2022/04/22 07:16:31;;;;;;;15.70;4.20;;;;;;;;;;5071550;28;20037;-62
2022/04/22 07:18:59;;;;;;;7.17;4.63;;;;;;;;;;5070183;28;20407;-62
2022/04/22 07:21:25;;;;;;;7.47;4.43;;;;;;;;;;5070981;28;20048;-62
2022/04/22 07:23:53;;;;;;;6.33;4.37;;;;;;;;;;5072124;28;20040;-62
2022/04/22 07:26:20;;;;;;;9.97;4.40;;;;;;;;;;5071557;28;20047;-62
2022/04/22 07:28:46;;;;;;;14.27;4.57;;;;;;;;;;5071647;28;20072;-62
2022/04/22 07:31:12;;;;;;;7.90;4.23;;;;;;;;;;5072012;28;20072;-62
2022/04/22 07:33:38;;;;;;;6.97;4.13;;;;;;;;;;5087124;28;20052;-62
2022/04/22 07:36:04;;;;;;;10.27;4.83;;;;;;;;;;5071801;28;20041;-62
2022/04/22 07:38:30;;;;;;;6.77;4.20;;;;;;;;;;5070963;28;20064;-62
2022/04/22 07:40:56;;;;;;;7.70;4.37;;;;;;;;;;5067804;28;20045;-62
2022/04/22 07:48:56;;;;;;;7.97;4.40;;;;;;;;;;5072160;28;20057;-62
2022/04/22 07:51:23;;;;;;;9.67;4.27;;;;;;;;;;5071905;28;20045;-62
2022/04/22 07:53:49;;;;;;;6.77;4.10;;;;;;;;;;5072029;28;20045;-62
2022/04/22 07:56:15;;;;;;;8.33;3.50;;;;;;;;;;5070605;28;20574;-62
2022/04/22 07:58:41;;;;;;;12.07;3.77;;;;;;;;;;5075314;28;20044;-62
2022/04/22 08:01:08;;;;;;;11.20;4.03;;;;;;;;;;5071294;28;20049;-61
2022/04/22 08:03:36;;;;;;;8.43;4.37;;;;;;;;;;5071841;28;20079;-62
2022/04/22 08:06:02;;;;;;;7.40;4.23;;;;;;;;;;5070548;28;20159;-62
2022/04/22 08:08:30;;;;;;;10.67;3.83;;;;;;;;;;5070314;28;20051;-62
2022/04/22 08:10:56;;;;;;;7.53;3.70;;;;;;;;;;5071687;28;20057;-63
2022/04/22 08:13:24;;;;;;;8.67;4.17;;;;;;;;;;5071414;28;20040;-63
2022/04/22 08:15:51;;;;;;;4.80;3.00;;;;;;;;;;5071682;28;20044;-64
2022/04/22 08:18:17;;;;;;;10.70;3.43;;;;;;;;;;5071285;28;20086;-62
2022/04/22 08:20:43;;;;;;;7.07;3.00;;;;;;;;;;5070736;28;20041;-62
2022/04/22 08:23:09;;;;;;;6.40;3.30;;;;;;;;;;5071241;28;20051;-62
2022/04/22 08:25:35;;;;;;;5.93;3.00;;;;;;;;;;5071098;28;20048;-62
2022/04/22 08:28:04;;;;;;;5.83;3.10;;;;;;;;;;5068336;28;20052;-62
2022/04/22 08:30:30;;;;;;;6.87;2.57;;;;;;;;;;5050183;28;20045;-62
2022/04/22 08:32:56;;;;;;;7.17;2.50;;;;;;;;;;5050913;28;20045;-62
2022/04/22 08:35:23;;;;;;;6.37;2.90;;;;;;;;;;5050277;28;20045;-62
2022/04/22 08:37:49;;;;;;;7.23;2.70;;;;;;;;;;5058380;28;20059;-62
2022/04/22 08:40:15;;;;;;;6.17;2.20;;;;;;;;;;5070550;28;20040;-62
2022/04/22 08:42:42;;;;;;;7.97;2.60;;;;;;;;;;5069883;28;20052;-62
2022/04/22 08:45:11;;;;;;;5.10;2.63;;;;;;;;;;5071072;28;20063;-62
2022/04/22 08:50:23;;;;;;;4.97;2.43;;;;;;;;;;5070465;28;20076;-62
2022/04/22 08:52:56;;;;;;;9.43;3.53;;;;;;;;;;5070745;28;20048;-62
2022/04/22 08:55:22;;;;;;;;;;;;;;;;;;5070538;28;20044;-62
2022/04/22 08:57:48;;;;;;;6.53;2.40;;;;;;;;;;5070683;28;19927;-62
2022/04/22 09:00:14;;;;;;;5.17;2.20;;;;;;;;;;5070007;28;20103;-62
2022/04/22 09:02:40;;;;;;;2.93;2.00;;;;;;;;;;5069530;28;20047;-62
2022/04/22 09:05:08;;;;;;;6.10;1.87;;;;;;;;;;5069254;28;20127;-62
2022/04/22 09:07:35;;;;;;;4.20;1.80;;;;;;;;;;5065253;28;20495;-62
2022/04/22 09:10:01;;;;;;;5.97;1.80;;;;;;;;;;5057665;28;20044;-62
2022/04/22 09:12:27;;;;;;;3.83;2.10;;;;;;;;;;5069448;28;20538;-62
2022/04/22 09:14:54;;;;;;;4.30;2.30;;;;;;;;;;5068943;28;20510;-62
2022/04/22 09:17:25;;;;;;;4.67;2.03;;;;;;;;;;5068790;28;20045;-62
2022/04/22 09:19:51;;;;;;;3.27;1.60;;;;;;;;;;5069430;28;20411;-62
2022/04/22 09:22:21;;;;;;;5.07;1.70;;;;;;;;;;5068983;28;20155;-62
2022/04/22 09:24:48;;;;;;;5.67;1.77;;;;;;;;;;5069052;28;20044;-62
2022/04/22 09:27:14;;;;;;;6.10;1.60;;;;;;;;;;5069187;28;20044;-62
2022/04/22 09:30:02;;;;;;;3.67;1.70;;;;;;;;;;5068559;28;20072;-64
2022/04/22 09:32:29;;;;;;;2.37;1.87;;;;;;;;;;5068856;28;20521;-62
2022/04/22 09:35:07;;;;;;;4.30;1.83;;;;;;;;;;5069007;28;20044;-62
2022/04/22 09:42:38;;;;;;;6.67;1.80;;;;;;;;;;5048674;28;20080;-63
2022/04/22 09:43:17;;;;;;;3.83;1.70;;;;;;;;;;5048495;28;20049;-62
2022/04/22 09:45:43;;;;;;;5.50;1.57;;;;;;;;;;5049064;28;20057;-62
2022/04/22 09:48:14;;;;;;;3.93;1.70;;;;;;;;;;5048789;28;20045;-63
2022/04/22 09:50:47;;;;;;;6.43;2.50;;;;;;;;;;5048321;28;20049;-62
2022/04/22 09:53:14;;;;;;;3.53;1.93;;;;;;;;;;5048822;28;20051;-62
2022/04/22 09:55:53;;;;;;;4.33;2.00;;;;;;;;;;5047706;28;20056;-62
2022/04/22 09:58:23;;;;;;;4.73;1.73;;;;;;;;;;5048402;28;20101;-62
2022/04/22 10:01:00;;;;;;;7.73;2.03;;;;;;;;;;5048838;28;20048;-62
2022/04/22 10:03:27;;;;;;;4.77;1.90;;;;;;;;;;5048733;28;20057;-62
2022/04/22 10:05:54;;;;;;;4.53;1.53;;;;;;;;;;5047418;28;20053;-62
2022/04/22 10:08:21;;;;;;;5.63;2.00;;;;;;;;;;5058596;28;20044;-62
2022/04/22 10:10:48;;;;;;;4.50;1.83;;;;;;;;;;5054036;28;20092;-63
2022/04/22 10:13:16;;;;;;;5.37;1.70;;;;;;;;;;5048749;28;20044;-62
2022/04/22 10:15:42;;;;;;;4.57;1.97;;;;;;;;;;5048549;28;20045;-62
2022/04/22 10:18:09;;;;;;;6.57;1.80;;;;;;;;;;5048448;28;20049;-62
2022/04/22 10:20:36;;;;;;;3.47;2.13;;;;;;;;;;5048081;28;20556;-62
2022/04/22 10:23:03;;;;;;;3.47;1.80;;;;;;;;;;5048664;28;20045;-62
2022/04/22 10:25:30;;;;;;;5.00;1.80;;;;;;;;;;5048174;28;20044;-62
2022/04/22 10:27:57;;;;;;;3.57;1.60;;;;;;;;;;5048646;28;20048;-62
2022/04/22 10:30:23;;;;;;;4.30;1.70;;;;;;;;;;5048073;28;20135;-62
2022/04/22 10:32:50;;;;;;;4.63;1.47;;;;;;;;;;5048179;28;20460;-62
2022/04/22 10:35:16;;;;;;;4.40;1.70;;;;;;;;;;5047911;28;20048;-62
2022/04/22 10:37:43;;;;;;;6.33;1.60;;;;;;;;;;5052471;28;20044;-62
2022/04/22 10:40:29;;;;;;;5.63;2.00;;;;;;;;;;5067885;28;20057;-62
2022/04/22 10:42:58;;;;;;;5.47;1.70;;;;;;;;;;5062606;28;20044;-62
2022/04/22 10:48:19;;;;;;;4.17;1.90;;;;;;;;;;5067892;28;20044;-62
2022/04/22 10:50:55;;;;;;;4.82;1.95;;;;;;;;;;5067829;28;20132;-62
2022/04/22 10:53:25;;;;;;;6.27;2.47;;;;;;;;;;5067462;28;20044;-62
2022/04/22 10:55:51;;;;;;;5.23;2.30;;;;;;;;;;5083740;28;20044;-62
2022/04/22 10:58:17;;;;;;;3.47;1.90;;;;;;;;;;5068237;28;20147;-62
2022/04/22 11:00:57;;;;;;;4.87;2.20;;;;;;;;;;5067843;28;20128;-62
2022/04/22 11:03:31;;;;;;;9.75;2.40;;;;;;;;;;5067873;28;20044;-62
2022/04/22 11:06:01;;;;;;;3.35;2.20;;;;;;;;;;5069254;28;20562;-62
2022/04/22 11:08:30;;;;;;;4.88;2.30;;;;;;;;;;5071716;28;20036;-62
2022/04/22 11:10:56;;;;;;;6.63;2.67;;;;;;;;;;5071335;28;20528;-62
2022/04/22 11:13:33;;;;;;;5.50;2.30;;;;;;;;;;5071781;28;20071;-62
2022/04/22 11:15:59;;;;;;;4.53;2.10;;;;;;;;;;5071621;28;20063;-62
2022/04/22 11:18:26;;;;;;;4.05;2.25;;;;;;;;;;5071315;28;20036;-62
2022/04/22 11:20:53;;;;;;;6.93;2.22;;;;;;;;;;5071633;28;20076;-62
2022/04/22 11:23:19;;;;;;;8.73;2.30;;;;;;;;;;5071129;28;20793;-62
2022/04/22 11:25:46;;;;;;;7.53;3.40;;;;;;;;;;5071758;28;20153;-62
2022/04/22 11:28:14;;;;;;;4.18;2.42;;;;;;;;;;5071017;28;20119;-62
2022/04/22 11:30:40;;;;;;;4.97;2.50;;;;;;;;;;5071088;28;20094;-62
2022/04/22 11:33:16;;;;;;;3.55;2.35;;;;;;;;;;5071426;28;20123;-62
2022/04/22 11:35:42;;;;;;;7.45;2.55;;;;;;;;;;5071185;28;20155;-62
2022/04/22 11:38:08;;;;;;;6.25;2.58;;;;;;;;;;5070565;28;20056;-62
2022/04/22 11:40:37;;;;;;;4.38;2.30;;;;;;;;;;5070724;28;20409;-62
2022/04/22 11:43:10;;;;;;;4.53;2.30;;;;;;;;;;5070792;28;20044;-62
2022/04/22 11:45:36;;;;;;;;;;;;;;;;;;5071454;28;20087;-62
2022/04/22 11:48:09;;;;;;;4.35;2.30;;;;;;;;;;5070885;28;19920;-62
2022/04/22 11:50:39;;;;;;;8.02;2.92;;;;;;;;;;5086568;28;20060;-62
2022/04/22 11:53:08;;;;;;;7.68;2.60;;;;;;;;;;5071185;28;20056;-62
2022/04/22 11:55:34;;;;;;;5.00;2.53;;;;;;;;;;5070650;28;20106;-62
2022/04/22 11:58:01;;;;;;;7.50;3.17;;;;;;;;;;5070421;28;20123;-63
2022/04/22 12:05:56;;;;;;;6.07;2.75;;;;;;;;;;5070948;28;20053;-63
2022/04/22 12:08:22;;;;;;;5.03;2.80;;;;;;;;;;5070367;28;20055;-63
2022/04/22 12:10:50;;;;;;;10.63;2.85;;;;;;;;;;5070905;28;20118;-63
2022/04/22 12:13:17;;;;;;;5.82;2.55;;;;;;;;;;5070581;28;20052;-63
2022/04/22 12:15:48;;;;;;;5.07;3.00;;;;;;;;;;5070652;28;20059;-63
2022/04/22 12:18:44;;;;;;;9.18;3.00;;;;;;;;;;5069575;28;20043;-63
2022/04/22 12:21:11;;;;;;;4.82;3.10;;;;;;;;;;5069649;28;20055;-63
2022/04/22 12:23:39;;;;;;;6.60;3.33;;;;;;;;;;5069827;28;20044;-63
2022/04/22 12:26:06;;;;;;;10.13;3.08;;;;;;;;;;5070144;28;20467;-63
2022/04/22 12:28:32;;;;;;;9.45;3.40;;;;;;;;;;5069664;28;20041;-63
2022/04/22 12:30:58;;;;;;;5.75;3.40;;;;;;;;;;5069967;28;20048;-63
2022/04/22 12:33:24;;;;;;;4.80;3.42;;;;;;;;;;5069071;28;20082;-63
2022/04/22 12:36:04;;;;;;;4.80;3.08;;;;;;;;;;5068875;28;20044;-63
2022/04/22 12:38:32;;;;;;;5.47;3.08;;;;;;;;;;5069399;28;20053;-63
2022/04/22 12:40:58;;;;;;;5.93;3.40;;;;;;;;;;5070144;28;20060;-63
2022/04/22 12:43:28;;;;;;;6.07;2.80;;;;;;;;;;5069558;28;20127;-63
2022/04/22 12:54:13;;;;;;;9.32;3.75;;;;;;;;;;5069722;28;20056;-63
2022/04/22 12:56:39;;;;;;;6.38;3.45;;;;;;;;;;5069375;28;20060;-63
2022/04/22 12:59:06;;;;;;;15.38;3.72;;;;;;;;;;5069260;28;20040;-62
2022/04/22 13:01:42;;;;;;;7.32;4.10;;;;;;;;;;5069596;28;20129;-62
2022/04/22 13:04:19;;;;;;;10.75;4.28;;;;;;;;;;5069525;28;20049;-62
2022/04/22 13:06:48;;;;;;;6.70;3.90;;;;;;;;;;5069388;28;20040;-62
2022/04/22 13:09:15;;;;;;;8.35;4.00;;;;;;;;;;5068679;28;20563;-62
2022/04/22 13:11:42;;;;;;;7.32;3.92;;;;;;;;;;5069317;28;20048;-62
2022/04/22 13:14:09;;;;;;;5.57;4.05;;;;;;;;;;5069178;28;20452;-62
2022/04/22 13:16:35;;;;;;;6.68;4.28;;;;;;;;;;5068825;28;20040;-62
2022/04/22 13:19:01;;;;;;;9.15;3.80;;;;;;;;;;5068837;28;20588;-62
2022/04/22 13:21:28;;;;;;;9.20;4.63;;;;;;;;;;5068300;28;20565;-62
2022/04/22 13:23:54;;;;;;;4.85;3.63;;;;;;;;;;5069017;28;20041;-62
2022/04/22 13:26:21;;;;;;;7.90;4.03;;;;;;;;;;5068920;28;20076;-62
2022/04/22 13:28:47;;;;;;;6.78;4.10;;;;;;;;;;5068886;28;20044;-65
2022/04/22 13:31:13;;;;;;;9.43;4.38;;;;;;;;;;5069051;28;20144;-62
2022/04/22 13:33:39;;;;;;;6.57;4.00;;;;;;;;;;5068967;28;20048;-62
2022/04/22 13:36:09;;;;;;;6.97;4.57;;;;;;;;;;5068894;28;20525;-62
2022/04/22 13:38:37;;;;;;;9.90;4.30;;;;;;;;;;5068377;28;20576;-62
2022/04/22 13:41:04;;;;;;;5.30;3.75;;;;;;;;;;5068206;28;20048;-62
2022/04/22 13:43:30;;;;;;;9.70;4.65;;;;;;;;;;5068863;28;20045;-62
2022/04/22 13:54:15;;;;;;;7.43;4.20;;;;;;;;;;5068687;28;20041;-61
2022/04/22 13:56:41;;;;;;;8.57;5.00;;;;;;;;;;5068253;28;20780;-62
2022/04/22 13:59:07;;;;;;;7.80;5.07;;;;;;;;;;5068608;28;20050;-62
2022/04/22 14:01:33;;;;;;;5.53;3.80;;;;;;;;;;5068529;28;20132;-62
2022/04/22 14:03:59;;;;;;;9.93;4.13;;;;;;;;;;5068360;28;20048;-62
2022/04/22 14:06:25;;;;;;;8.13;4.18;;;;;;;;;;5068552;28;20058;-62
2022/04/22 14:08:52;;;;;;;9.25;4.15;;;;;;;;;;5068478;28;20040;-62
2022/04/22 14:11:18;;;;;;;10.00;4.38;;;;;;;;;;5068352;28;20049;-62
2022/04/22 14:13:44;;;;;;;6.78;4.53;;;;;;;;;;5068559;28;20151;-62
2022/04/22 14:16:10;;;;;;;9.13;4.43;;;;;;;;;;5051012;28;20037;-62
2022/04/22 14:18:37;;;;;;;6.50;3.85;;;;;;;;;;5048414;28;20099;-62
2022/04/22 14:21:04;;;;;;;6.78;4.13;;;;;;;;;;5048122;28;20061;-62
2022/04/22 14:23:30;;;;;;;13.48;4.55;;;;;;;;;;5048204;28;20136;-62
2022/04/22 14:25:56;;;;;;;7.38;4.35;;;;;;;;;;5047994;28;20507;-62
2022/04/22 14:28:26;;;;;;;7.82;4.20;;;;;;;;;;5048116;28;20037;-62
2022/04/22 14:30:53;;;;;;;7.15;3.47;;;;;;;;;;5048415;28;20045;-62
2022/04/22 14:33:19;;;;;;;6.45;3.53;;;;;;;;;;5048543;28;20049;-61
2022/04/22 14:35:45;;;;;;;8.30;4.85;;;;;;;;;;5048741;28;20080;-61
2022/04/22 14:38:11;;;;;;;9.70;3.65;;;;;;;;;;5065571;28;20057;-61
2022/04/22 14:40:37;;;;;;;4.78;3.47;;;;;;;;;;5048786;28;20411;-61
2022/04/22 14:43:06;;;;;;;10.48;3.40;;;;;;;;;;5052137;28;20045;-61
2022/04/22 14:45:33;;;;;;;8.10;4.00;;;;;;;;;;5052241;28;20128;-62
2022/04/22 14:47:59;;;;;;;8.18;3.40;;;;;;;;;;5051969;28;20492;-62
2022/04/22 14:50:25;;;;;;;6.82;3.65;;;;;;;;;;5051581;28;20075;-62
2022/04/22 14:52:52;;;;;;;8.40;3.47;;;;;;;;;;5051589;28;20053;-62
2022/04/22 14:55:18;;;;;;;6.90;3.88;;;;;;;;;;5052056;28;20040;-62
2022/04/22 14:57:44;;;;;;;7.50;3.40;;;;;;;;;;5054654;28;20147;-62
2022/04/22 15:00:10;;;;;;;6.15;3.25;;;;;;;;;;5051669;28;20170;-62
2022/04/22 15:02:37;;;;;;;11.80;3.53;;;;;;;;;;5051571;28;20069;-62
2022/04/22 15:05:03;;;;;;;13.80;3.70;;;;;;;;;;5051940;28;20072;-62
2022/04/22 15:07:30;;;;;;;9.50;3.33;;;;;;;;;;5051913;28;20421;-62
2022/04/22 15:09:57;;;;;;;3.85;2.85;;;;;;;;;;5051591;28;20045;-62
2022/04/22 15:12:23;;;;;;;6.80;3.20;;;;;;;;;;5065122;28;20057;-62
2022/04/22 15:14:52;;;;;;;8.40;3.60;;;;;;;;;;5071685;28;20093;-62
2022/04/22 15:24:09;;;;;;;7.78;3.35;;;;;;;;;;5071436;28;20052;-62
2022/04/22 15:25:37;;;;;;;5.38;2.80;;;;;;;;;;5055387;28;20123;-61
2022/04/22 15:28:03;;;;;;;7.75;3.40;;;;;;;;;;5072239;28;20562;-61
2022/04/22 15:30:48;;;;;;;6.88;3.45;;;;;;;;;;5081614;28;20045;-62
2022/04/22 15:33:14;;;;;;;6.07;3.30;;;;;;;;;;5079677;28;20048;-62
2022/04/22 15:35:40;;;;;;;6.43;3.63;;;;;;;;;;5078660;28;20090;-62
2022/04/22 15:38:06;;;;;;;6.35;3.13;;;;;;;;;;5079539;28;20048;-62
2022/04/22 15:40:32;;;;;;;5.82;3.38;;;;;;;;;;5088700;28;20482;-62
2022/04/22 15:42:58;;;;;;;6.97;3.22;;;;;;;;;;5090415;28;20051;-62
2022/04/22 15:45:24;;;;;;;5.88;3.00;;;;;;;;;;5089395;28;20105;-62
2022/04/22 15:47:50;;;;;;;5.90;3.35;;;;;;;;;;5089222;28;20040;-62
2022/04/22 15:50:16;;;;;;;5.22;2.88;;;;;;;;;;5089826;28;20105;-62